Terminal Aerodrome Forecast
Issued by NWS

Home | Current Version | Previous Version | Text Only | Print | Product List | Glossary On
Versions: 1 2 3 4 5 6 7 8 9 10 11 12 13 14 15 16
000
FTUS46 KMTR 241700
TAFOAK
TAF
KOAK 241731Z 2418/2524 29008KT P6SM BKN012 OVC150
     FM241900 28009KT P6SM SCT015 BKN200
     FM242130 27015G25KT P6SM SCT025 BKN035 OVC150
     FM250200 27015KT P6SM SCT015 BKN025
     FM250800 26010KT P6SM VCSH SCT015 OVC025
     FM252100 27015G22KT P6SM BKN025=

USA.gov is the U.S. government's official web portal to all federal, state and local government web resources and services.